Portada
METAR-TAF:

METAR-TAF

Aeroports :

Al-Kuwait, Kuwait

latitud: 29-13N, longitud: 047-59E, altitud: 55 m

Observació

L'informe es va fer fa 34 minuts, a les 11:00 UTC
Vent calma
Temperatura 38°C
Humitat 19%
Pressió 1011 hPa
Visibilitat 10 km o més
sense núvols per sota de 1500 mi sense presència de cumulonimbus.

METAR: OKBK 231100Z 00000KT CAVOK 38/10 Q1011 NOSIG

Hora: 14:34 (11:34 UTC)

Pronòstic

L'informe es va fer fa 6 hores i 49 minuts, a les 04:45 UTC
Pronòstic vàlid del 23 a les 06 UTC al 24 a les 12 UTC
Vent 10 kt del Nord/Nord-Oest
Visibilitat: 7000 m
Temporalment
l' 23 a les 06 UTC al 23 a les 12 UTC
Vent 3 kt amb direcció variable

TAF: OKBK 230445Z 2306/2412 34010KT 7000 NSC TEMPO 2306/2312 VRB03KT

Observacions i pronòstics meteorològics de més de 4000 aeroports (METAR i TAF).

Les estacions disponibles són els punts grocs i vermells al mapa.

Posi el ratolí al punt desitjat per veure el nom de l'estació.

Feu clic per veure les observacions i els pronòstics meteorològics.

Per canviar el mapa: feu clic els botons verds amb una creu de color negre per apropar; al botó verd amb un guió per allunyar la imatge; o en les fletxes verdes per a mapes adjacents.


METAR-TAF: